sensor_id;sensor_type;location;lat;lon;timestamp;P1;durP1;ratioP1;P2;durP2;ratioP2
59824;SDS011;45703;50.898;6.054;2023-06-22T00:01:46;9.75;;;6.80;;
59824;SDS011;45703;50.898;6.054;2023-06-22T00:04:12;8.32;;;5.45;;
59824;SDS011;45703;50.898;6.054;2023-06-22T00:06:37;9.10;;;6.05;;
59824;SDS011;45703;50.898;6.054;2023-06-22T00:09:02;9.38;;;6.03;;
59824;SDS011;45703;50.898;6.054;2023-06-22T00:11:28;9.80;;;5.82;;
59824;SDS011;45703;50.898;6.054;2023-06-22T00:19:04;8.85;;;5.53;;
59824;SDS011;45703;50.898;6.054;2023-06-22T00:21:30;8.77;;;5.43;;
59824;SDS011;45703;50.898;6.054;2023-06-22T00:23:55;9.20;;;5.10;;
59824;SDS011;45703;50.898;6.054;2023-06-22T00:26:22;8.15;;;5.32;;
59824;SDS011;45703;50.898;6.054;2023-06-22T00:28:47;9.05;;;5.72;;
59824;SDS011;45703;50.898;6.054;2023-06-22T00:31:13;9.13;;;5.68;;
59824;SDS011;45703;50.898;6.054;2023-06-22T00:33:38;8.65;;;5.53;;
59824;SDS011;45703;50.898;6.054;2023-06-22T00:36:04;8.45;;;5.68;;
59824;SDS011;45703;50.898;6.054;2023-06-22T00:38:30;8.52;;;5.25;;
59824;SDS011;45703;50.898;6.054;2023-06-22T00:40:56;8.88;;;5.35;;
59824;SDS011;45703;50.898;6.054;2023-06-22T00:43:21;8.70;;;5.43;;
59824;SDS011;45703;50.898;6.054;2023-06-22T00:45:46;9.75;;;5.93;;
59824;SDS011;45703;50.898;6.054;2023-06-22T00:48:12;7.82;;;4.82;;
59824;SDS011;45703;50.898;6.054;2023-06-22T00:50:39;8.35;;;5.32;;
59824;SDS011;45703;50.898;6.054;2023-06-22T00:53:06;7.75;;;4.60;;
59824;SDS011;45703;50.898;6.054;2023-06-22T00:55:37;8.85;;;5.47;;
59824;SDS011;45703;50.898;6.054;2023-06-22T00:58:08;10.77;;;5.47;;
59824;SDS011;45703;50.898;6.054;2023-06-22T01:00:35;10.05;;;5.32;;
59824;SDS011;45703;50.898;6.054;2023-06-22T01:03:02;10.10;;;4.85;;
59824;SDS011;45703;50.898;6.054;2023-06-22T01:05:28;9.15;;;5.90;;
59824;SDS011;45703;50.898;6.054;2023-06-22T01:08:42;8.70;;;5.40;;
59824;SDS011;45703;50.898;6.054;2023-06-22T01:16:05;8.55;;;5.25;;
59824;SDS011;45703;50.898;6.054;2023-06-22T01:18:35;9.52;;;5.97;;
59824;SDS011;45703;50.898;6.054;2023-06-22T01:21:04;8.55;;;5.25;;
59824;SDS011;45703;50.898;6.054;2023-06-22T01:26:18;8.30;;;5.00;;
59824;SDS011;45703;50.898;6.054;2023-06-22T01:28:53;9.95;;;6.10;;
59824;SDS011;45703;50.898;6.054;2023-06-22T01:31:22;8.98;;;5.18;;
59824;SDS011;45703;50.898;6.054;2023-06-22T01:33:54;10.60;;;6.40;;
59824;SDS011;45703;50.898;6.054;2023-06-22T01:36:22;8.73;;;5.47;;
59824;SDS011;45703;50.898;6.054;2023-06-22T01:38:49;8.75;;;4.95;;
59824;SDS011;45703;50.898;6.054;2023-06-22T01:41:19;10.70;;;6.03;;
59824;SDS011;45703;50.898;6.054;2023-06-22T01:46:11;9.27;;;5.10;;
59824;SDS011;45703;50.898;6.054;2023-06-22T01:48:38;8.98;;;5.70;;
59824;SDS011;45703;50.898;6.054;2023-06-22T01:51:04;8.75;;;5.30;;
59824;SDS011;45703;50.898;6.054;2023-06-22T01:53:29;10.80;;;6.75;;
59824;SDS011;45703;50.898;6.054;2023-06-22T01:55:58;9.73;;;5.97;;
59824;SDS011;45703;50.898;6.054;2023-06-22T01:58:25;10.63;;;6.20;;
59824;SDS011;45703;50.898;6.054;2023-06-22T02:01:11;10.10;;;6.25;;
59824;SDS011;45703;50.898;6.054;2023-06-22T02:03:43;10.50;;;6.50;;
59824;SDS011;45703;50.898;6.054;2023-06-22T02:06:22;10.68;;;6.47;;
59824;SDS011;45703;50.898;6.054;2023-06-22T02:08:57;10.63;;;6.80;;
59824;SDS011;45703;50.898;6.054;2023-06-22T02:11:26;11.02;;;6.70;;
59824;SDS011;45703;50.898;6.054;2023-06-22T02:13:52;10.73;;;7.00;;
59824;SDS011;45703;50.898;6.054;2023-06-22T02:16:18;10.02;;;6.60;;
59824;SDS011;45703;50.898;6.054;2023-06-22T02:18:47;11.48;;;7.30;;
59824;SDS011;45703;50.898;6.054;2023-06-22T02:21:19;10.55;;;6.95;;
59824;SDS011;45703;50.898;6.054;2023-06-22T02:23:45;10.73;;;6.90;;
59824;SDS011;45703;50.898;6.054;2023-06-22T02:26:12;10.63;;;7.28;;
59824;SDS011;45703;50.898;6.054;2023-06-22T02:28:37;10.50;;;7.20;;
59824;SDS011;45703;50.898;6.054;2023-06-22T02:31:03;10.60;;;6.88;;
59824;SDS011;45703;50.898;6.054;2023-06-22T02:33:28;10.85;;;7.55;;
59824;SDS011;45703;50.898;6.054;2023-06-22T02:35:54;12.45;;;7.15;;
59824;SDS011;45703;50.898;6.054;2023-06-22T02:38:19;11.70;;;7.78;;
59824;SDS011;45703;50.898;6.054;2023-06-22T02:40:45;9.32;;;6.15;;
59824;SDS011;45703;50.898;6.054;2023-06-22T02:43:11;11.43;;;6.90;;
59824;SDS011;45703;50.898;6.054;2023-06-22T02:45:37;10.57;;;7.45;;
59824;SDS011;45703;50.898;6.054;2023-06-22T02:48:02;10.27;;;6.72;;
59824;SDS011;45703;50.898;6.054;2023-06-22T02:50:28;12.55;;;8.68;;
59824;SDS011;45703;50.898;6.054;2023-06-22T02:52:53;10.73;;;7.50;;
59824;SDS011;45703;50.898;6.054;2023-06-22T02:55:18;12.15;;;7.75;;
59824;SDS011;45703;50.898;6.054;2023-06-22T02:57:44;10.80;;;7.13;;
59824;SDS011;45703;50.898;6.054;2023-06-22T03:00:12;11.43;;;7.43;;
59824;SDS011;45703;50.898;6.054;2023-06-22T03:02:44;11.25;;;7.57;;
59824;SDS011;45703;50.898;6.054;2023-06-22T03:05:11;11.05;;;7.22;;
59824;SDS011;45703;50.898;6.054;2023-06-22T03:07:41;12.88;;;7.82;;
59824;SDS011;45703;50.898;6.054;2023-06-22T03:10:08;12.15;;;7.30;;
59824;SDS011;45703;50.898;6.054;2023-06-22T03:12:34;12.52;;;8.35;;
59824;SDS011;45703;50.898;6.054;2023-06-22T03:14:59;11.32;;;7.10;;
59824;SDS011;45703;50.898;6.054;2023-06-22T03:17:25;12.55;;;8.55;;
59824;SDS011;45703;50.898;6.054;2023-06-22T03:19:50;11.73;;;8.07;;
59824;SDS011;45703;50.898;6.054;2023-06-22T03:22:16;13.82;;;8.75;;
59824;SDS011;45703;50.898;6.054;2023-06-22T03:24:41;11.52;;;8.18;;
59824;SDS011;45703;50.898;6.054;2023-06-22T03:27:06;12.68;;;8.65;;
59824;SDS011;45703;50.898;6.054;2023-06-22T03:29:32;12.25;;;8.60;;
59824;SDS011;45703;50.898;6.054;2023-06-22T03:31:57;15.43;;;9.40;;
59824;SDS011;45703;50.898;6.054;2023-06-22T03:34:23;12.65;;;8.98;;
59824;SDS011;45703;50.898;6.054;2023-06-22T03:36:48;11.85;;;8.40;;
59824;SDS011;45703;50.898;6.054;2023-06-22T03:39:13;12.88;;;9.43;;
59824;SDS011;45703;50.898;6.054;2023-06-22T03:41:39;15.70;;;9.55;;
59824;SDS011;45703;50.898;6.054;2023-06-22T03:44:04;11.75;;;9.23;;
59824;SDS011;45703;50.898;6.054;2023-06-22T03:46:29;13.57;;;9.65;;
59824;SDS011;45703;50.898;6.054;2023-06-22T03:48:55;14.77;;;9.35;;
59824;SDS011;45703;50.898;6.054;2023-06-22T03:51:20;12.40;;;9.63;;
59824;SDS011;45703;50.898;6.054;2023-06-22T03:53:46;13.05;;;8.40;;
59824;SDS011;45703;50.898;6.054;2023-06-22T03:56:13;13.75;;;10.10;;
59824;SDS011;45703;50.898;6.054;2023-06-22T03:58:45;14.05;;;9.43;;
59824;SDS011;45703;50.898;6.054;2023-06-22T04:01:10;12.82;;;8.23;;
59824;SDS011;45703;50.898;6.054;2023-06-22T04:03:36;13.23;;;8.13;;
59824;SDS011;45703;50.898;6.054;2023-06-22T04:06:02;13.63;;;9.07;;
59824;SDS011;45703;50.898;6.054;2023-06-22T04:08:27;12.68;;;8.88;;
59824;SDS011;45703;50.898;6.054;2023-06-22T04:10:53;12.80;;;8.57;;
59824;SDS011;45703;50.898;6.054;2023-06-22T04:13:18;12.88;;;9.23;;
59824;SDS011;45703;50.898;6.054;2023-06-22T04:15:44;13.27;;;8.98;;
59824;SDS011;45703;50.898;6.054;2023-06-22T04:18:10;14.07;;;10.20;;
59824;SDS011;45703;50.898;6.054;2023-06-22T04:20:35;15.38;;;9.43;;
59824;SDS011;45703;50.898;6.054;2023-06-22T04:23:01;12.38;;;8.48;;
59824;SDS011;45703;50.898;6.054;2023-06-22T04:25:26;13.05;;;9.80;;
59824;SDS011;45703;50.898;6.054;2023-06-22T04:27:52;14.35;;;10.27;;
59824;SDS011;45703;50.898;6.054;2023-06-22T04:30:17;13.13;;;9.65;;
59824;SDS011;45703;50.898;6.054;2023-06-22T04:32:43;15.45;;;11.07;;
59824;SDS011;45703;50.898;6.054;2023-06-22T04:35:09;14.20;;;10.52;;
59824;SDS011;45703;50.898;6.054;2023-06-22T04:37:35;14.07;;;9.73;;
59824;SDS011;45703;50.898;6.054;2023-06-22T04:40:00;15.70;;;10.55;;
59824;SDS011;45703;50.898;6.054;2023-06-22T04:42:26;14.65;;;10.10;;
59824;SDS011;45703;50.898;6.054;2023-06-22T04:44:52;13.70;;;9.20;;
59824;SDS011;45703;50.898;6.054;2023-06-22T04:47:18;15.27;;;10.15;;
59824;SDS011;45703;50.898;6.054;2023-06-22T04:49:43;12.82;;;9.98;;
59824;SDS011;45703;50.898;6.054;2023-06-22T04:52:09;15.05;;;11.52;;
59824;SDS011;45703;50.898;6.054;2023-06-22T04:54:37;15.45;;;9.98;;
59824;SDS011;45703;50.898;6.054;2023-06-22T04:57:04;14.77;;;10.25;;
59824;SDS011;45703;50.898;6.054;2023-06-22T04:59:34;12.77;;;9.18;;
59824;SDS011;45703;50.898;6.054;2023-06-22T05:02:01;13.65;;;10.07;;
59824;SDS011;45703;50.898;6.054;2023-06-22T05:04:28;11.73;;;8.25;;
59824;SDS011;45703;50.898;6.054;2023-06-22T05:06:58;14.52;;;9.60;;
59824;SDS011;45703;50.898;6.054;2023-06-22T05:09:27;15.13;;;10.43;;
59824;SDS011;45703;50.898;6.054;2023-06-22T05:11:54;14.73;;;9.75;;
59824;SDS011;45703;50.898;6.054;2023-06-22T05:14:19;14.50;;;10.88;;
59824;SDS011;45703;50.898;6.054;2023-06-22T05:16:45;12.90;;;9.25;;
59824;SDS011;45703;50.898;6.054;2023-06-22T05:19:11;15.43;;;10.48;;
59824;SDS011;45703;50.898;6.054;2023-06-22T05:21:37;13.50;;;9.68;;
59824;SDS011;45703;50.898;6.054;2023-06-22T05:24:03;14.70;;;10.05;;
59824;SDS011;45703;50.898;6.054;2023-06-22T05:26:32;13.27;;;9.45;;
59824;SDS011;45703;50.898;6.054;2023-06-22T05:28:59;13.02;;;9.43;;
59824;SDS011;45703;50.898;6.054;2023-06-22T05:31:26;14.73;;;11.15;;
59824;SDS011;45703;50.898;6.054;2023-06-22T05:33:52;14.75;;;10.90;;
59824;SDS011;45703;50.898;6.054;2023-06-22T05:36:19;12.57;;;8.85;;
59824;SDS011;45703;50.898;6.054;2023-06-22T05:38:46;13.85;;;9.77;;
59824;SDS011;45703;50.898;6.054;2023-06-22T05:41:11;15.18;;;11.05;;
59824;SDS011;45703;50.898;6.054;2023-06-22T05:43:37;14.73;;;10.10;;
59824;SDS011;45703;50.898;6.054;2023-06-22T05:46:03;14.70;;;11.75;;
59824;SDS011;45703;50.898;6.054;2023-06-22T05:48:29;15.88;;;11.75;;
59824;SDS011;45703;50.898;6.054;2023-06-22T05:50:55;15.57;;;11.18;;
59824;SDS011;45703;50.898;6.054;2023-06-22T05:53:20;15.90;;;11.75;;
59824;SDS011;45703;50.898;6.054;2023-06-22T05:55:46;15.18;;;10.48;;
59824;SDS011;45703;50.898;6.054;2023-06-22T05:58:11;13.27;;;9.68;;
59824;SDS011;45703;50.898;6.054;2023-06-22T06:00:38;15.77;;;10.85;;
59824;SDS011;45703;50.898;6.054;2023-06-22T06:03:03;14.85;;;10.18;;
59824;SDS011;45703;50.898;6.054;2023-06-22T06:05:32;16.63;;;11.48;;
59824;SDS011;45703;50.898;6.054;2023-06-22T06:08:02;13.82;;;10.38;;
59824;SDS011;45703;50.898;6.054;2023-06-22T06:10:30;14.88;;;10.32;;
59824;SDS011;45703;50.898;6.054;2023-06-22T06:12:56;14.57;;;9.65;;
59824;SDS011;45703;50.898;6.054;2023-06-22T06:15:21;17.02;;;13.23;;
59824;SDS011;45703;50.898;6.054;2023-06-22T06:17:50;17.33;;;11.07;;
59824;SDS011;45703;50.898;6.054;2023-06-22T06:20:19;13.98;;;9.13;;
59824;SDS011;45703;50.898;6.054;2023-06-22T06:25:14;15.05;;;11.07;;
59824;SDS011;45703;50.898;6.054;2023-06-22T06:27:48;17.85;;;12.45;;
59824;SDS011;45703;50.898;6.054;2023-06-22T06:30:16;18.70;;;11.52;;
59824;SDS011;45703;50.898;6.054;2023-06-22T06:32:43;16.00;;;10.57;;
59824;SDS011;45703;50.898;6.054;2023-06-22T06:35:10;13.63;;;9.60;;
59824;SDS011;45703;50.898;6.054;2023-06-22T06:37:38;15.27;;;10.55;;
59824;SDS011;45703;50.898;6.054;2023-06-22T06:40:08;15.88;;;11.55;;
59824;SDS011;45703;50.898;6.054;2023-06-22T06:42:39;13.15;;;9.30;;
59824;SDS011;45703;50.898;6.054;2023-06-22T06:45:27;15.68;;;11.38;;
59824;SDS011;45703;50.898;6.054;2023-06-22T06:47:53;16.55;;;11.32;;
59824;SDS011;45703;50.898;6.054;2023-06-22T06:50:19;14.60;;;10.43;;
59824;SDS011;45703;50.898;6.054;2023-06-22T06:52:45;15.85;;;10.27;;
59824;SDS011;45703;50.898;6.054;2023-06-22T06:55:10;19.95;;;13.55;;
59824;SDS011;45703;50.898;6.054;2023-06-22T06:57:37;13.77;;;9.88;;
59824;SDS011;45703;50.898;6.054;2023-06-22T07:00:04;14.75;;;11.13;;
59824;SDS011;45703;50.898;6.054;2023-06-22T07:02:39;14.80;;;10.98;;
59824;SDS011;45703;50.898;6.054;2023-06-22T07:05:06;14.20;;;10.88;;
59824;SDS011;45703;50.898;6.054;2023-06-22T07:07:32;16.02;;;11.55;;
59824;SDS011;45703;50.898;6.054;2023-06-22T07:09:57;15.82;;;11.57;;
59824;SDS011;45703;50.898;6.054;2023-06-22T07:12:23;14.60;;;10.68;;
59824;SDS011;45703;50.898;6.054;2023-06-22T07:14:48;15.88;;;12.20;;
59824;SDS011;45703;50.898;6.054;2023-06-22T07:17:15;17.67;;;12.25;;
59824;SDS011;45703;50.898;6.054;2023-06-22T07:19:40;14.95;;;12.05;;
59824;SDS011;45703;50.898;6.054;2023-06-22T07:22:07;18.20;;;11.52;;
59824;SDS011;45703;50.898;6.054;2023-06-22T07:24:32;15.93;;;12.40;;
59824;SDS011;45703;50.898;6.054;2023-06-22T07:26:58;15.57;;;11.63;;
59824;SDS011;45703;50.898;6.054;2023-06-22T07:29:24;15.98;;;11.68;;
59824;SDS011;45703;50.898;6.054;2023-06-22T07:31:51;17.40;;;12.63;;
59824;SDS011;45703;50.898;6.054;2023-06-22T07:34:17;15.23;;;11.57;;
59824;SDS011;45703;50.898;6.054;2023-06-22T07:36:43;15.13;;;10.93;;
59824;SDS011;45703;50.898;6.054;2023-06-22T07:39:09;15.40;;;11.52;;
59824;SDS011;45703;50.898;6.054;2023-06-22T07:41:36;15.75;;;10.93;;
59824;SDS011;45703;50.898;6.054;2023-06-22T07:44:02;14.02;;;10.18;;
59824;SDS011;45703;50.898;6.054;2023-06-22T07:46:28;14.40;;;10.82;;
59824;SDS011;45703;50.898;6.054;2023-06-22T07:48:55;15.65;;;9.63;;
59824;SDS011;45703;50.898;6.054;2023-06-22T07:51:21;15.15;;;9.85;;
59824;SDS011;45703;50.898;6.054;2023-06-22T07:53:47;12.88;;;8.52;;
59824;SDS011;45703;50.898;6.054;2023-06-22T07:56:12;12.82;;;9.43;;
59824;SDS011;45703;50.898;6.054;2023-06-22T07:58:38;14.35;;;10.88;;
59824;SDS011;45703;50.898;6.054;2023-06-22T08:01:04;13.13;;;9.18;;
59824;SDS011;45703;50.898;6.054;2023-06-22T08:03:31;14.18;;;9.85;;
59824;SDS011;45703;50.898;6.054;2023-06-22T08:05:57;13.20;;;8.75;;
59824;SDS011;45703;50.898;6.054;2023-06-22T08:08:23;13.85;;;10.52;;
59824;SDS011;45703;50.898;6.054;2023-06-22T08:10:48;14.32;;;10.80;;
59824;SDS011;45703;50.898;6.054;2023-06-22T08:13:14;13.70;;;9.65;;
59824;SDS011;45703;50.898;6.054;2023-06-22T08:15:39;12.68;;;8.73;;
59824;SDS011;45703;50.898;6.054;2023-06-22T08:18:04;15.40;;;10.02;;
59824;SDS011;45703;50.898;6.054;2023-06-22T08:20:30;14.55;;;10.73;;
59824;SDS011;45703;50.898;6.054;2023-06-22T08:22:56;14.43;;;9.95;;
59824;SDS011;45703;50.898;6.054;2023-06-22T08:25:25;14.38;;;9.90;;
59824;SDS011;45703;50.898;6.054;2023-06-22T08:27:50;13.77;;;9.20;;
59824;SDS011;45703;50.898;6.054;2023-06-22T08:30:16;13.07;;;9.85;;
59824;SDS011;45703;50.898;6.054;2023-06-22T08:32:43;13.63;;;9.57;;
59824;SDS011;45703;50.898;6.054;2023-06-22T08:35:09;14.48;;;9.38;;
59824;SDS011;45703;50.898;6.054;2023-06-22T08:37:34;12.80;;;9.73;;
59824;SDS011;45703;50.898;6.054;2023-06-22T08:40:01;15.55;;;11.85;;
59824;SDS011;45703;50.898;6.054;2023-06-22T08:42:32;12.45;;;8.43;;
59824;SDS011;45703;50.898;6.054;2023-06-22T08:44:58;12.65;;;9.50;;
59824;SDS011;45703;50.898;6.054;2023-06-22T08:47:23;12.88;;;10.75;;
59824;SDS011;45703;50.898;6.054;2023-06-22T08:49:49;12.95;;;9.10;;
59824;SDS011;45703;50.898;6.054;2023-06-22T08:52:14;13.15;;;10.13;;
59824;SDS011;45703;50.898;6.054;2023-06-22T08:54:40;12.07;;;9.43;;
59824;SDS011;45703;50.898;6.054;2023-06-22T08:57:05;12.13;;;9.73;;
59824;SDS011;45703;50.898;6.054;2023-06-22T08:59:31;14.50;;;10.93;;
59824;SDS011;45703;50.898;6.054;2023-06-22T09:01:57;16.48;;;11.85;;
59824;SDS011;45703;50.898;6.054;2023-06-22T09:04:25;16.30;;;12.38;;
59824;SDS011;45703;50.898;6.054;2023-06-22T09:06:50;15.77;;;12.43;;
59824;SDS011;45703;50.898;6.054;2023-06-22T09:09:17;16.23;;;12.70;;
59824;SDS011;45703;50.898;6.054;2023-06-22T09:11:43;15.60;;;12.13;;
59824;SDS011;45703;50.898;6.054;2023-06-22T09:14:09;12.95;;;9.32;;
59824;SDS011;45703;50.898;6.054;2023-06-22T09:16:34;16.15;;;12.10;;
59824;SDS011;45703;50.898;6.054;2023-06-22T09:19:00;15.82;;;11.85;;
59824;SDS011;45703;50.898;6.054;2023-06-22T09:21:25;14.18;;;10.88;;
59824;SDS011;45703;50.898;6.054;2023-06-22T09:23:51;13.18;;;10.18;;
59824;SDS011;45703;50.898;6.054;2023-06-22T09:26:17;16.05;;;12.32;;
59824;SDS011;45703;50.898;6.054;2023-06-22T09:28:43;13.23;;;10.82;;
59824;SDS011;45703;50.898;6.054;2023-06-22T09:31:08;15.40;;;12.75;;
59824;SDS011;45703;50.898;6.054;2023-06-22T09:33:34;16.90;;;13.25;;
59824;SDS011;45703;50.898;6.054;2023-06-22T09:36:00;13.75;;;10.77;;
59824;SDS011;45703;50.898;6.054;2023-06-22T09:38:26;15.18;;;12.60;;
59824;SDS011;45703;50.898;6.054;2023-06-22T09:40:51;16.58;;;12.95;;
59824;SDS011;45703;50.898;6.054;2023-06-22T09:43:16;14.20;;;11.00;;
59824;SDS011;45703;50.898;6.054;2023-06-22T09:45:42;14.68;;;12.52;;
59824;SDS011;45703;50.898;6.054;2023-06-22T09:48:07;15.27;;;12.00;;
59824;SDS011;45703;50.898;6.054;2023-06-22T09:50:34;15.85;;;11.70;;
59824;SDS011;45703;50.898;6.054;2023-06-22T09:53:00;16.40;;;11.98;;
59824;SDS011;45703;50.898;6.054;2023-06-22T09:55:25;14.07;;;10.60;;
59824;SDS011;45703;50.898;6.054;2023-06-22T09:57:51;12.82;;;10.52;;
59824;SDS011;45703;50.898;6.054;2023-06-22T10:00:16;14.85;;;11.18;;
59824;SDS011;45703;50.898;6.054;2023-06-22T10:02:43;13.30;;;10.68;;
59824;SDS011;45703;50.898;6.054;2023-06-22T10:05:09;14.30;;;10.40;;
59824;SDS011;45703;50.898;6.054;2023-06-22T10:07:37;14.38;;;10.57;;
59824;SDS011;45703;50.898;6.054;2023-06-22T10:10:07;12.20;;;9.25;;
59824;SDS011;45703;50.898;6.054;2023-06-22T10:12:33;16.00;;;11.63;;
59824;SDS011;45703;50.898;6.054;2023-06-22T10:14:59;14.00;;;10.57;;
59824;SDS011;45703;50.898;6.054;2023-06-22T10:17:25;16.17;;;12.85;;
59824;SDS011;45703;50.898;6.054;2023-06-22T10:19:50;16.55;;;12.27;;
59824;SDS011;45703;50.898;6.054;2023-06-22T10:22:16;16.05;;;12.13;;
59824;SDS011;45703;50.898;6.054;2023-06-22T10:24:41;15.65;;;12.95;;
59824;SDS011;45703;50.898;6.054;2023-06-22T10:27:12;19.42;;;14.80;;
59824;SDS011;45703;50.898;6.054;2023-06-22T10:29:38;16.95;;;13.80;;
59824;SDS011;45703;50.898;6.054;2023-06-22T10:32:04;16.52;;;14.43;;
59824;SDS011;45703;50.898;6.054;2023-06-22T10:34:30;16.75;;;14.13;;
59824;SDS011;45703;50.898;6.054;2023-06-22T10:36:55;18.00;;;14.38;;
59824;SDS011;45703;50.898;6.054;2023-06-22T10:39:21;20.60;;;15.32;;
59824;SDS011;45703;50.898;6.054;2023-06-22T10:41:46;15.63;;;12.77;;
59824;SDS011;45703;50.898;6.054;2023-06-22T10:44:11;18.83;;;14.80;;
59824;SDS011;45703;50.898;6.054;2023-06-22T10:46:37;17.02;;;13.90;;
59824;SDS011;45703;50.898;6.054;2023-06-22T10:49:03;19.05;;;14.02;;
59824;SDS011;45703;50.898;6.054;2023-06-22T10:51:28;18.58;;;14.52;;
59824;SDS011;45703;50.898;6.054;2023-06-22T10:53:54;18.30;;;13.93;;
59824;SDS011;45703;50.898;6.054;2023-06-22T10:56:19;19.25;;;15.10;;
59824;SDS011;45703;50.898;6.054;2023-06-22T10:58:45;15.82;;;13.55;;
59824;SDS011;45703;50.898;6.054;2023-06-22T11:01:11;20.98;;;17.75;;
59824;SDS011;45703;50.898;6.054;2023-06-22T11:03:36;18.08;;;14.75;;
59824;SDS011;45703;50.898;6.054;2023-06-22T11:06:02;19.25;;;16.45;;
59824;SDS011;45703;50.898;6.054;2023-06-22T11:08:27;18.05;;;15.45;;
59824;SDS011;45703;50.898;6.054;2023-06-22T11:10:53;17.40;;;15.35;;
59824;SDS011;45703;50.898;6.054;2023-06-22T11:13:18;17.05;;;14.35;;
59824;SDS011;45703;50.898;6.054;2023-06-22T11:15:43;17.25;;;14.18;;
59824;SDS011;45703;50.898;6.054;2023-06-22T11:18:09;19.08;;;16.95;;
59824;SDS011;45703;50.898;6.054;2023-06-22T11:20:34;18.42;;;16.00;;
59824;SDS011;45703;50.898;6.054;2023-06-22T11:23:03;17.77;;;14.95;;
59824;SDS011;45703;50.898;6.054;2023-06-22T11:25:32;19.35;;;17.15;;
59824;SDS011;45703;50.898;6.054;2023-06-22T11:27:59;18.17;;;15.02;;
59824;SDS011;45703;50.898;6.054;2023-06-22T11:30:26;17.00;;;14.85;;
59824;SDS011;45703;50.898;6.054;2023-06-22T11:32:52;18.42;;;15.18;;
59824;SDS011;45703;50.898;6.054;2023-06-22T11:35:17;15.95;;;12.85;;
59824;SDS011;45703;50.898;6.054;2023-06-22T11:37:43;15.95;;;13.80;;
59824;SDS011;45703;50.898;6.054;2023-06-22T11:40:08;17.92;;;15.30;;
59824;SDS011;45703;50.898;6.054;2023-06-22T11:42:34;17.48;;;14.48;;
59824;SDS011;45703;50.898;6.054;2023-06-22T11:45:00;18.13;;;13.10;;
59824;SDS011;45703;50.898;6.054;2023-06-22T11:47:25;16.40;;;13.20;;
59824;SDS011;45703;50.898;6.054;2023-06-22T11:49:51;15.43;;;12.90;;
59824;SDS011;45703;50.898;6.054;2023-06-22T11:52:16;14.77;;;11.65;;
59824;SDS011;45703;50.898;6.054;2023-06-22T11:54:42;15.70;;;12.55;;
59824;SDS011;45703;50.898;6.054;2023-06-22T11:57:08;14.20;;;11.85;;
59824;SDS011;45703;50.898;6.054;2023-06-22T11:59:33;15.02;;;11.85;;
59824;SDS011;45703;50.898;6.054;2023-06-22T12:01:59;15.13;;;12.20;;
59824;SDS011;45703;50.898;6.054;2023-06-22T12:04:24;14.95;;;12.60;;
59824;SDS011;45703;50.898;6.054;2023-06-22T12:06:50;15.00;;;12.00;;
59824;SDS011;45703;50.898;6.054;2023-06-22T12:09:15;14.88;;;12.18;;
59824;SDS011;45703;50.898;6.054;2023-06-22T12:11:40;15.75;;;12.30;;
59824;SDS011;45703;50.898;6.054;2023-06-22T12:14:06;14.90;;;11.15;;
59824;SDS011;45703;50.898;6.054;2023-06-22T12:16:31;14.05;;;11.07;;
59824;SDS011;45703;50.898;6.054;2023-06-22T12:18:57;15.93;;;11.15;;
59824;SDS011;45703;50.898;6.054;2023-06-22T12:21:22;14.73;;;10.57;;
59824;SDS011;45703;50.898;6.054;2023-06-22T12:23:47;14.85;;;12.00;;
59824;SDS011;45703;50.898;6.054;2023-06-22T12:26:13;14.73;;;11.77;;
59824;SDS011;45703;50.898;6.054;2023-06-22T12:28:38;13.88;;;10.57;;
59824;SDS011;45703;50.898;6.054;2023-06-22T12:31:04;13.55;;;10.30;;
59824;SDS011;45703;50.898;6.054;2023-06-22T12:33:29;15.00;;;9.68;;
59824;SDS011;45703;50.898;6.054;2023-06-22T12:35:55;13.25;;;10.23;;
59824;SDS011;45703;50.898;6.054;2023-06-22T12:38:21;13.48;;;10.05;;
59824;SDS011;45703;50.898;6.054;2023-06-22T12:40:46;14.55;;;10.75;;
59824;SDS011;45703;50.898;6.054;2023-06-22T12:43:12;15.30;;;10.77;;
59824;SDS011;45703;50.898;6.054;2023-06-22T12:45:37;13.07;;;10.20;;
59824;SDS011;45703;50.898;6.054;2023-06-22T12:48:03;16.50;;;11.73;;
59824;SDS011;45703;50.898;6.054;2023-06-22T12:50:28;16.42;;;12.63;;
59824;SDS011;45703;50.898;6.054;2023-06-22T12:52:54;21.55;;;17.60;;
59824;SDS011;45703;50.898;6.054;2023-06-22T12:55:19;21.80;;;17.55;;
59824;SDS011;45703;50.898;6.054;2023-06-22T12:57:45;20.42;;;17.90;;
59824;SDS011;45703;50.898;6.054;2023-06-22T13:00:10;21.30;;;18.52;;
59824;SDS011;45703;50.898;6.054;2023-06-22T13:02:36;23.60;;;20.25;;
59824;SDS011;45703;50.898;6.054;2023-06-22T13:05:02;26.05;;;21.63;;
59824;SDS011;45703;50.898;6.054;2023-06-22T13:07:28;26.65;;;22.45;;
59824;SDS011;45703;50.898;6.054;2023-06-22T13:09:53;26.67;;;22.38;;
59824;SDS011;45703;50.898;6.054;2023-06-22T13:12:22;27.25;;;22.40;;
59824;SDS011;45703;50.898;6.054;2023-06-22T13:14:48;27.67;;;24.63;;
59824;SDS011;45703;50.898;6.054;2023-06-22T13:17:14;28.63;;;25.48;;
59824;SDS011;45703;50.898;6.054;2023-06-22T13:19:40;27.98;;;25.08;;
59824;SDS011;45703;50.898;6.054;2023-06-22T13:22:09;27.30;;;23.33;;
59824;SDS011;45703;50.898;6.054;2023-06-22T13:24:57;26.10;;;23.30;;
59824;SDS011;45703;50.898;6.054;2023-06-22T13:27:23;27.52;;;23.92;;
59824;SDS011;45703;50.898;6.054;2023-06-22T13:29:49;23.58;;;21.08;;
59824;SDS011;45703;50.898;6.054;2023-06-22T13:32:15;29.65;;;24.80;;
59824;SDS011;45703;50.898;6.054;2023-06-22T13:34:40;28.35;;;25.35;;
59824;SDS011;45703;50.898;6.054;2023-06-22T13:37:06;26.90;;;23.80;;
59824;SDS011;45703;50.898;6.054;2023-06-22T13:39:32;25.80;;;22.95;;
59824;SDS011;45703;50.898;6.054;2023-06-22T13:41:57;26.35;;;22.65;;
59824;SDS011;45703;50.898;6.054;2023-06-22T13:44:23;26.55;;;23.08;;
59824;SDS011;45703;50.898;6.054;2023-06-22T13:46:48;25.30;;;22.38;;
59824;SDS011;45703;50.898;6.054;2023-06-22T13:49:14;27.77;;;22.42;;
59824;SDS011;45703;50.898;6.054;2023-06-22T13:51:39;25.48;;;22.77;;
59824;SDS011;45703;50.898;6.054;2023-06-22T13:54:05;29.02;;;24.60;;
59824;SDS011;45703;50.898;6.054;2023-06-22T13:56:30;28.42;;;23.90;;
59824;SDS011;45703;50.898;6.054;2023-06-22T13:58:57;27.17;;;22.38;;
59824;SDS011;45703;50.898;6.054;2023-06-22T14:01:22;27.13;;;24.27;;
59824;SDS011;45703;50.898;6.054;2023-06-22T14:03:48;23.73;;;21.08;;
59824;SDS011;45703;50.898;6.054;2023-06-22T14:06:13;25.20;;;21.65;;
59824;SDS011;45703;50.898;6.054;2023-06-22T14:08:41;25.98;;;22.98;;
59824;SDS011;45703;50.898;6.054;2023-06-22T14:11:11;25.58;;;21.00;;
59824;SDS011;45703;50.898;6.054;2023-06-22T14:13:36;25.50;;;21.83;;
59824;SDS011;45703;50.898;6.054;2023-06-22T14:16:02;27.95;;;24.38;;
59824;SDS011;45703;50.898;6.054;2023-06-22T14:18:29;27.17;;;24.05;;
59824;SDS011;45703;50.898;6.054;2023-06-22T14:20:54;30.30;;;25.58;;
59824;SDS011;45703;50.898;6.054;2023-06-22T14:23:22;31.95;;;27.23;;
59824;SDS011;45703;50.898;6.054;2023-06-22T14:25:47;34.97;;;29.80;;
59824;SDS011;45703;50.898;6.054;2023-06-22T14:28:13;34.90;;;29.42;;
59824;SDS011;45703;50.898;6.054;2023-06-22T14:30:38;33.15;;;28.83;;
59824;SDS011;45703;50.898;6.054;2023-06-22T14:33:03;35.17;;;30.27;;
59824;SDS011;45703;50.898;6.054;2023-06-22T14:35:29;35.13;;;31.33;;
59824;SDS011;45703;50.898;6.054;2023-06-22T14:37:54;34.70;;;30.98;;
59824;SDS011;45703;50.898;6.054;2023-06-22T14:40:20;38.13;;;33.85;;
59824;SDS011;45703;50.898;6.054;2023-06-22T14:42:45;35.95;;;32.13;;